createdAt,value
2023-01-03T00:04:07.256Z,12.30
2023-01-03T00:09:07.454Z,11.82
2023-01-03T00:14:03.796Z,12.52
2023-01-03T00:19:00.150Z,14.10
2023-01-03T00:23:56.500Z,13.27
2023-01-03T00:28:52.920Z,14.05
2023-01-03T00:33:49.554Z,14.55
2023-01-03T00:38:45.965Z,14.45
2023-01-03T00:43:44.579Z,16.15
2023-01-03T00:48:41.389Z,16.83
2023-01-03T00:53:39.595Z,17.58
2023-01-03T00:58:36.811Z,15.30
2023-01-03T01:03:33.948Z,16.85
2023-01-03T01:08:30.306Z,16.85
2023-01-03T01:13:26.616Z,17.98
2023-01-03T01:18:22.976Z,16.60
2023-01-03T01:23:19.307Z,17.98
2023-01-03T01:28:15.723Z,18.00
2023-01-03T01:33:12.123Z,18.17
2023-01-03T01:38:08.428Z,17.92
2023-01-03T01:43:34.885Z,14.93
2023-01-03T01:48:31.240Z,18.15
2023-01-03T01:53:33.504Z,16.73
2023-01-03T01:58:35.303Z,15.75
2023-01-03T02:03:31.700Z,15.98
2023-01-03T02:08:28.113Z,16.73
2023-01-03T02:13:33.395Z,16.83
2023-01-03T02:18:40.800Z,16.25
2023-01-03T02:24:13.780Z,16.90
2023-01-03T02:29:37.898Z,15.23
2023-01-03T02:34:44.877Z,15.05
2023-01-03T02:40:00.525Z,15.55
2023-01-03T02:45:05.705Z,16.33
2023-01-03T02:50:06.093Z,17.10
2023-01-03T02:55:08.928Z,13.15
2023-01-03T03:00:13.944Z,10.93
2023-01-03T03:05:15.136Z,10.60
2023-01-03T03:10:30.471Z,7.22
2023-01-03T03:15:32.623Z,8.35
2023-01-03T03:20:47.372Z,9.50
2023-01-03T03:25:49.320Z,8.95
2023-01-03T03:30:50.820Z,9.45
2023-01-03T03:35:57.059Z,8.57
2023-01-03T03:41:30.249Z,12.63
2023-01-03T03:46:33.776Z,15.45
2023-01-03T03:51:34.460Z,16.17
2023-01-03T03:56:35.038Z,15.25
2023-01-03T04:01:33.630Z,17.75
2023-01-03T04:06:35.370Z,17.92
2023-01-03T04:11:31.721Z,19.75
2023-01-03T04:16:28.075Z,18.05
2023-01-03T04:21:24.531Z,19.38
2023-01-03T04:26:20.872Z,19.42
2023-01-03T04:31:17.216Z,19.40
2023-01-03T04:36:13.564Z,19.10
2023-01-03T04:41:10.272Z,21.67
2023-01-03T04:46:06.672Z,20.45
2023-01-03T04:51:03.165Z,18.55
2023-01-03T04:55:59.652Z,19.77
2023-01-03T05:01:01.313Z,19.88
2023-01-03T05:06:16.993Z,19.75
2023-01-03T05:11:14.048Z,18.73
2023-01-03T05:16:13.399Z,18.17
2023-01-03T05:21:39.856Z,18.92
2023-01-03T05:26:39.576Z,18.15
2023-01-03T05:31:36.014Z,19.73
2023-01-03T05:36:32.403Z,18.70
2023-01-03T05:41:47.411Z,18.00
2023-01-03T05:46:44.442Z,18.38
2023-01-03T05:51:41.093Z,17.05
2023-01-03T05:56:38.011Z,17.77
2023-01-03T06:01:34.435Z,16.95
2023-01-03T06:06:30.800Z,18.90
2023-01-03T06:11:27.252Z,18.83
2023-01-03T06:16:42.090Z,17.25
2023-01-03T06:21:38.666Z,17.48
2023-01-03T06:26:35.575Z,17.45
2023-01-03T06:31:32.285Z,17.15
2023-01-03T06:36:29.212Z,16.27
2023-01-03T06:41:25.612Z,16.98
2023-01-03T06:46:41.014Z,16.23
2023-01-03T06:51:55.721Z,15.90
2023-01-03T06:56:53.420Z,15.98
2023-01-03T07:01:51.215Z,15.18
2023-01-03T07:06:47.779Z,15.03
2023-01-03T07:11:44.411Z,14.05
2023-01-03T07:16:46.108Z,14.27
2023-01-03T07:21:43.418Z,14.38
2023-01-03T07:26:39.993Z,13.50
2023-01-03T07:31:39.918Z,13.05
2023-01-03T07:36:37.071Z,11.93
2023-01-03T07:41:51.916Z,12.02
2023-01-03T07:46:48.244Z,13.18
2023-01-03T07:51:44.687Z,13.23
2023-01-03T07:56:40.998Z,13.73
2023-01-03T08:01:37.395Z,13.93
2023-01-03T08:06:33.768Z,13.55
2023-01-03T08:11:48.660Z,13.93
2023-01-03T08:16:45.059Z,12.45
2023-01-03T08:21:41.431Z,12.63
2023-01-03T08:26:37.834Z,12.13
2023-01-03T08:31:38.874Z,11.93
2023-01-03T08:36:47.444Z,12.25
2023-01-03T08:41:47.550Z,12.20
2023-01-03T08:46:48.145Z,12.15
2023-01-03T08:51:44.732Z,11.15
2023-01-03T08:56:41.028Z,11.48
2023-01-03T09:01:37.430Z,13.35
2023-01-03T09:06:34.212Z,10.75
2023-01-03T09:11:30.527Z,10.80
2023-01-03T09:16:26.972Z,12.10
2023-01-03T09:21:23.799Z,10.27
2023-01-03T09:26:20.148Z,10.35
2023-01-03T09:31:16.832Z,10.55
2023-01-03T09:36:13.755Z,10.05
2023-01-03T09:41:22.001Z,10.45
2023-01-03T09:46:21.676Z,10.10
2023-01-03T09:51:42.294Z,9.38
2023-01-03T09:56:57.523Z,8.32
2023-01-03T10:02:40.663Z,7.70
2023-01-03T10:07:57.086Z,8.13
2023-01-03T10:13:24.935Z,6.85
2023-01-03T10:18:49.279Z,7.87
2023-01-03T10:23:48.299Z,7.15
2023-01-03T10:28:45.955Z,7.07
2023-01-03T10:33:48.423Z,7.05
2023-01-03T10:38:51.966Z,6.70
2023-01-03T10:44:00.815Z,5.70
2023-01-03T10:49:27.412Z,5.65
2023-01-03T10:54:48.168Z,5.55
2023-01-03T10:59:50.090Z,5.07
2023-01-03T11:04:46.625Z,4.72
2023-01-03T11:09:57.725Z,4.68
2023-01-03T11:14:56.299Z,4.35
2023-01-03T11:24:59.401Z,5.18
2023-01-03T11:30:21.480Z,4.18
2023-01-03T11:35:29.845Z,4.00
2023-01-03T11:40:38.550Z,4.10
2023-01-03T11:45:48.660Z,4.00
2023-01-03T11:50:54.728Z,3.47
2023-01-03T11:56:10.076Z,3.45
2023-01-03T12:01:37.059Z,3.10
2023-01-03T12:06:51.388Z,3.40
2023-01-03T12:12:07.567Z,3.83
2023-01-03T12:17:13.879Z,2.50
2023-01-03T12:22:30.710Z,3.88
2023-01-03T12:27:37.365Z,2.95
2023-01-03T12:32:47.141Z,2.30
2023-01-03T12:37:49.685Z,2.65
2023-01-03T12:42:58.006Z,2.58
2023-01-03T12:48:13.408Z,2.88
2023-01-03T12:53:19.864Z,2.45
2023-01-03T12:58:46.150Z,2.85
2023-01-03T13:03:53.263Z,3.95
2023-01-03T13:08:55.399Z,1.88
2023-01-03T13:13:59.287Z,1.90
2023-01-03T13:18:55.563Z,2.00
2023-01-03T13:23:59.625Z,1.85
2023-01-03T13:29:33.409Z,1.85
2023-01-03T13:34:32.552Z,1.40
2023-01-03T13:39:50.840Z,1.55
2023-01-03T13:44:47.255Z,1.23
2023-01-03T13:49:53.696Z,1.25
2023-01-03T13:54:58.588Z,2.22
2023-01-03T13:59:57.207Z,1.92
2023-01-03T14:10:31.481Z,1.60
2023-01-03T14:15:31.020Z,1.88
2023-01-03T14:20:32.356Z,1.90
2023-01-03T14:25:35.628Z,1.50
2023-01-03T14:30:34.566Z,2.60
2023-01-03T14:35:31.829Z,2.13
2023-01-03T14:40:28.173Z,1.40
2023-01-03T14:45:24.699Z,1.80
2023-01-03T14:50:30.674Z,3.33
2023-01-03T14:55:29.890Z,1.73
2023-01-03T15:00:32.853Z,2.03
2023-01-03T15:05:39.284Z,2.45
2023-01-03T15:11:00.439Z,2.67
2023-01-03T15:16:01.479Z,1.98
2023-01-03T15:21:00.527Z,2.05
2023-01-03T15:25:59.192Z,2.28
2023-01-03T15:31:01.167Z,1.90
2023-01-03T15:35:59.656Z,1.63
2023-01-03T15:40:56.138Z,3.03
2023-01-03T15:46:04.719Z,2.63
2023-01-03T15:51:03.757Z,2.20
2023-01-03T15:56:15.392Z,2.22
2023-01-03T16:01:13.183Z,2.40
2023-01-03T16:06:09.655Z,2.85
2023-01-03T16:11:16.871Z,2.22
2023-01-03T16:16:24.430Z,2.58
2023-01-03T16:21:21.852Z,2.30
2023-01-03T16:26:19.143Z,2.60
2023-01-03T16:31:30.625Z,2.50
2023-01-03T16:36:32.691Z,2.30
2023-01-03T16:41:29.085Z,2.75
2023-01-03T16:46:26.433Z,3.05
2023-01-03T16:51:29.896Z,2.55
2023-01-03T16:56:27.092Z,2.95
2023-01-03T17:01:23.551Z,2.92
2023-01-03T17:06:37.635Z,3.85
2023-01-03T17:11:34.835Z,2.53
2023-01-03T17:16:32.737Z,2.40
2023-01-03T17:21:34.612Z,2.47
2023-01-03T17:26:33.309Z,2.38
2023-01-03T17:31:30.122Z,2.30
2023-01-03T17:36:29.630Z,2.70
2023-01-03T17:41:27.752Z,2.53
2023-01-03T17:46:46.408Z,2.83
2023-01-03T17:51:42.957Z,2.83
2023-01-03T17:56:40.597Z,3.70
2023-01-03T18:01:37.014Z,2.93
2023-01-03T18:06:33.594Z,3.60
2023-01-03T18:11:30.002Z,2.95
2023-01-03T18:16:26.467Z,3.42
2023-01-03T18:21:27.872Z,3.22
2023-01-03T18:26:31.708Z,3.53
2023-01-03T18:31:29.487Z,3.75
2023-01-03T18:36:31.905Z,4.00
2023-01-03T18:41:31.834Z,4.10
2023-01-03T18:46:28.840Z,4.97
2023-01-03T18:51:28.507Z,4.95
2023-01-03T18:56:34.544Z,4.95
2023-01-03T19:01:31.504Z,4.78
2023-01-03T19:06:33.585Z,5.07
2023-01-03T19:11:37.414Z,4.82
2023-01-03T19:16:37.227Z,4.07
2023-01-03T19:21:35.947Z,3.65
2023-01-03T19:26:45.739Z,2.90
2023-01-03T19:31:45.628Z,3.15
2023-01-03T19:36:42.158Z,2.40
2023-01-03T19:42:04.800Z,2.30
2023-01-03T19:47:02.661Z,2.17
2023-01-03T19:51:59.045Z,1.87
2023-01-03T19:56:57.539Z,1.92
2023-01-03T20:02:23.913Z,2.25
2023-01-03T20:07:14.501Z,2.17
2023-01-03T20:12:14.299Z,1.98
2023-01-03T20:17:20.587Z,1.67
2023-01-03T20:22:44.988Z,2.13
2023-01-03T20:27:40.887Z,1.75
2023-01-03T20:32:40.532Z,2.22
2023-01-03T20:37:36.851Z,2.00
2023-01-03T20:42:33.154Z,1.85
2023-01-03T20:47:29.528Z,1.92
2023-01-03T20:52:25.816Z,1.42
2023-01-03T20:57:22.116Z,1.77
2023-01-03T21:02:18.553Z,1.70
2023-01-03T21:07:52.035Z,1.50
2023-01-03T21:12:48.354Z,1.38
2023-01-03T21:17:50.588Z,1.77
2023-01-03T21:22:47.536Z,1.63
2023-01-03T21:27:44.121Z,1.60
2023-01-03T21:32:40.471Z,1.30
2023-01-03T21:37:36.998Z,1.40
2023-01-03T21:42:51.875Z,1.20
2023-01-03T21:47:48.193Z,1.55
2023-01-03T21:52:45.123Z,1.48
2023-01-03T21:57:41.415Z,1.60
2023-01-03T22:03:00.655Z,1.25
2023-01-03T22:07:57.284Z,1.50
2023-01-03T22:13:03.017Z,1.30
2023-01-03T22:17:59.344Z,1.15
2023-01-03T22:22:55.725Z,1.55
2023-01-03T22:27:55.370Z,1.38
2023-01-03T22:32:51.888Z,1.48
2023-01-03T22:37:48.324Z,1.00
2023-01-03T22:42:44.642Z,1.40
2023-01-03T22:47:42.110Z,1.17
2023-01-03T22:52:39.896Z,1.15
2023-01-03T22:57:36.208Z,1.35
2023-01-03T23:02:39.311Z,1.15
2023-01-03T23:07:39.547Z,1.27
2023-01-03T23:12:55.644Z,1.50
2023-01-03T23:17:58.492Z,0.93
2023-01-03T23:22:59.588Z,0.93
2023-01-03T23:27:56.777Z,1.67
2023-01-03T23:32:53.189Z,1.60
2023-01-03T23:37:49.500Z,1.05
2023-01-03T23:42:45.824Z,1.00
2023-01-03T23:47:42.118Z,1.20
2023-01-03T23:52:38.412Z,1.20
2023-01-03T23:57:34.759Z,0.93
